createdAt,value
2024-03-14T00:01:08.729Z,12.89
2024-03-14T00:03:38.214Z,12.95
2024-03-14T00:06:06.577Z,12.94
2024-03-14T00:08:34.444Z,12.98
2024-03-14T00:11:03.044Z,12.94
2024-03-14T00:13:31.112Z,12.95
2024-03-14T00:15:58.915Z,12.92
2024-03-14T00:18:27.056Z,12.86
2024-03-14T00:20:55.080Z,12.68
2024-03-14T00:23:24.418Z,12.39
2024-03-14T00:25:53.184Z,12.22
2024-03-14T00:28:20.979Z,12.18
2024-03-14T00:30:50.493Z,12.05
2024-03-14T00:33:18.369Z,12.03
2024-03-14T00:35:46.247Z,12.15
2024-03-14T00:38:15.250Z,12.21
2024-03-14T00:40:44.232Z,12.27
2024-03-14T00:43:15.478Z,12.28
2024-03-14T00:45:43.659Z,12.26
2024-03-14T00:48:12.305Z,12.28
2024-03-14T00:50:42.344Z,12.38
2024-03-14T00:53:10.252Z,12.50
2024-03-14T00:55:38.178Z,12.56
2024-03-14T01:08:56.650Z,12.31
2024-03-14T01:11:24.595Z,12.04
2024-03-14T01:13:52.782Z,12.11
2024-03-14T01:16:20.748Z,12.13
2024-03-14T01:18:51.214Z,12.12
2024-03-14T01:21:21.432Z,12.13
2024-03-14T01:23:49.927Z,12.09
2024-03-14T01:26:17.735Z,12.04
2024-03-14T01:28:45.583Z,12.08
2024-03-14T01:31:13.630Z,11.94
2024-03-14T01:33:41.564Z,12.00
2024-03-14T01:36:09.679Z,12.05
2024-03-14T01:38:37.736Z,11.93
2024-03-14T01:41:06.617Z,11.78
2024-03-14T01:43:34.583Z,11.55
2024-03-14T01:46:03.671Z,11.50
2024-03-14T01:48:31.573Z,11.50
2024-03-14T01:50:59.451Z,11.39
2024-03-14T01:53:27.368Z,11.36
2024-03-14T01:55:55.221Z,11.43
2024-03-14T01:58:27.539Z,11.38
2024-03-14T02:00:55.383Z,11.11
2024-03-14T02:03:23.701Z,10.97
2024-03-14T02:05:51.876Z,11.04
2024-03-14T02:08:21.224Z,11.14
2024-03-14T02:10:49.023Z,11.19
2024-03-14T02:13:16.798Z,11.20
2024-03-14T02:15:45.137Z,11.10
2024-03-14T02:18:14.320Z,11.00
2024-03-14T02:20:42.232Z,10.94
2024-03-14T02:23:10.061Z,10.94
2024-03-14T02:25:40.321Z,11.00
2024-03-14T02:28:08.206Z,11.08
2024-03-14T02:30:36.118Z,11.06
2024-03-14T02:33:04.392Z,11.00
2024-03-14T02:35:32.526Z,10.83
2024-03-14T02:38:00.396Z,10.82
2024-03-14T02:40:29.441Z,10.83
2024-03-14T02:42:57.265Z,10.85
2024-03-14T02:45:27.999Z,10.72
2024-03-14T02:47:56.046Z,10.65
2024-03-14T02:50:23.976Z,10.68
2024-03-14T02:52:51.803Z,10.73
2024-03-14T02:55:19.591Z,10.69
2024-03-14T02:57:47.533Z,10.62
2024-03-14T03:00:18.695Z,10.58
2024-03-14T03:02:46.678Z,10.66
2024-03-14T03:05:14.851Z,10.55
2024-03-14T03:07:45.045Z,10.48
2024-03-14T03:10:13.872Z,10.51
2024-03-14T03:12:41.756Z,10.47
2024-03-14T03:15:10.623Z,10.42
2024-03-14T03:17:40.193Z,10.32
2024-03-14T03:20:11.587Z,10.26
2024-03-14T03:22:57.640Z,10.16
2024-03-14T03:25:25.812Z,10.17
2024-03-14T03:27:52.962Z,10.14
2024-03-14T03:30:21.140Z,10.12
2024-03-14T03:32:48.107Z,10.23
2024-03-14T03:35:20.920Z,10.28
2024-03-14T03:37:49.047Z,10.06
2024-03-14T03:40:23.367Z,9.95
2024-03-14T03:42:52.905Z,9.89
2024-03-14T03:45:21.446Z,9.89
2024-03-14T03:47:52.711Z,9.84
2024-03-14T03:50:19.547Z,9.68
2024-03-14T03:52:47.791Z,9.61
2024-03-14T03:55:18.162Z,9.58
2024-03-14T03:57:46.433Z,9.57
2024-03-14T04:00:40.409Z,9.58
2024-03-14T04:03:10.997Z,9.68
2024-03-14T04:05:39.392Z,9.74
2024-03-14T04:08:06.842Z,9.84
2024-03-14T04:10:35.013Z,9.84
2024-03-14T04:13:01.925Z,9.68
2024-03-14T04:15:30.758Z,9.53
2024-03-14T04:17:58.906Z,9.57
2024-03-14T04:20:28.510Z,9.62
2024-03-14T04:22:56.377Z,9.59
2024-03-14T04:25:24.252Z,9.45
2024-03-14T04:28:38.388Z,9.48
2024-03-14T04:31:54.857Z,9.50
2024-03-14T04:35:10.521Z,9.46
2024-03-14T04:38:58.600Z,9.52
2024-03-14T05:18:23.403Z,9.25
2024-03-14T05:36:51.776Z,9.08
2024-03-14T05:43:47.120Z,9.17
2024-03-14T05:46:24.621Z,9.18
2024-03-14T05:48:59.738Z,9.15
2024-03-14T05:51:30.278Z,8.91
2024-03-14T05:54:07.234Z,8.62
2024-03-14T05:56:44.292Z,8.75
2024-03-14T05:59:16.665Z,8.85
2024-03-14T06:01:59.636Z,8.92
2024-03-14T06:04:43.642Z,8.99
2024-03-14T06:07:13.291Z,9.03
2024-03-14T06:09:44.994Z,9.12
2024-03-14T06:12:14.339Z,9.18
2024-03-14T06:14:47.290Z,9.19
2024-03-14T06:17:19.067Z,9.24
2024-03-14T06:19:53.710Z,9.19
2024-03-14T06:22:25.168Z,9.05
2024-03-14T06:25:07.513Z,9.15
2024-03-14T06:27:50.471Z,9.29
2024-03-14T06:30:59.873Z,9.29
2024-03-14T06:36:28.996Z,9.51
2024-03-14T06:39:12.924Z,9.63
2024-03-14T06:42:02.294Z,9.77
2024-03-14T06:44:30.453Z,9.74
2024-03-14T06:47:11.060Z,9.84
2024-03-14T06:49:44.170Z,9.95
2024-03-14T06:52:20.856Z,10.08
2024-03-14T06:55:07.523Z,10.13
2024-03-14T06:57:36.210Z,10.15
2024-03-14T07:00:13.093Z,10.39
2024-03-14T07:02:42.186Z,10.51
2024-03-14T07:05:11.282Z,10.70
2024-03-14T07:07:59.633Z,10.89
2024-03-14T07:11:12.598Z,11.09
2024-03-14T07:13:43.806Z,11.22
2024-03-14T07:16:14.802Z,11.29
2024-03-14T07:18:56.501Z,11.43
2024-03-14T07:21:27.515Z,11.35
2024-03-14T07:23:57.974Z,9.40
2024-03-14T07:26:33.690Z,9.39
2024-03-14T07:29:14.122Z,8.88
2024-03-14T07:32:00.140Z,9.02
2024-03-14T07:34:29.872Z,8.48
2024-03-14T07:37:09.825Z,8.98
2024-03-14T07:39:39.073Z,9.37
2024-03-14T07:42:07.877Z,10.00
2024-03-14T07:44:38.535Z,9.99
2024-03-14T07:47:10.630Z,10.36
2024-03-14T07:49:41.169Z,11.18
2024-03-14T07:52:12.941Z,11.71
2024-03-14T07:54:42.803Z,12.12
2024-03-14T07:57:20.666Z,12.52
2024-03-14T08:02:59.067Z,13.09
2024-03-14T08:05:35.858Z,13.17
2024-03-14T08:08:40.392Z,13.34
2024-03-14T08:14:42.346Z,13.79
2024-03-14T08:17:26.361Z,14.18
2024-03-14T08:30:41.264Z,14.27
2024-03-14T08:33:37.284Z,14.46
2024-03-14T08:46:38.932Z,13.02
2024-03-14T08:49:07.656Z,12.55
2024-03-14T08:51:39.457Z,13.04
2024-03-14T08:54:15.296Z,14.20
2024-03-14T08:56:43.207Z,14.35
2024-03-14T08:59:18.244Z,12.86
2024-03-14T09:01:47.362Z,11.44
2024-03-14T09:04:24.246Z,12.29
2024-03-14T09:06:56.855Z,12.73
2024-03-14T09:09:39.664Z,13.32
2024-03-14T09:12:18.209Z,13.92
2024-03-14T09:15:11.523Z,13.13
2024-03-14T09:17:45.707Z,13.25
2024-03-14T09:20:18.275Z,14.36
2024-03-14T09:22:46.887Z,14.95
2024-03-14T09:25:16.862Z,15.50
2024-03-14T09:27:57.456Z,15.63
2024-03-14T09:30:28.303Z,15.55
2024-03-14T09:32:58.303Z,14.72
2024-03-14T09:35:34.784Z,14.58
2024-03-14T09:38:30.655Z,15.18
2024-03-14T09:44:16.690Z,14.77
2024-03-14T09:46:48.295Z,13.75
2024-03-14T09:49:17.361Z,15.00
2024-03-14T09:51:46.384Z,14.63
2024-03-14T09:54:16.318Z,15.28
2024-03-14T09:56:50.801Z,15.71
2024-03-14T09:59:19.400Z,15.51
2024-03-14T10:01:47.856Z,13.95
2024-03-14T10:04:17.526Z,13.61
2024-03-14T10:06:54.647Z,13.99
2024-03-14T10:09:28.114Z,14.32
2024-03-14T10:12:03.908Z,14.13
2024-03-14T10:14:43.286Z,14.02
2024-03-14T10:17:11.835Z,14.67
2024-03-14T10:19:39.689Z,13.90
2024-03-14T10:22:08.178Z,14.52
2024-03-14T10:24:36.421Z,14.19
2024-03-14T10:27:06.439Z,14.19
2024-03-14T10:29:34.534Z,14.50
2024-03-14T10:32:05.671Z,14.65
2024-03-14T10:34:34.574Z,14.96
2024-03-14T10:37:02.689Z,15.20
2024-03-14T10:39:30.914Z,15.28
2024-03-14T10:41:58.820Z,15.47
2024-03-14T10:44:26.830Z,14.98
2024-03-14T10:46:54.829Z,14.79
2024-03-14T10:49:23.605Z,14.91
2024-03-14T10:51:52.992Z,14.37
2024-03-14T10:54:23.070Z,15.24
2024-03-14T10:56:50.979Z,15.78
2024-03-14T10:59:21.166Z,16.14
2024-03-14T11:01:54.252Z,16.34
2024-03-14T11:04:22.366Z,15.42
2024-03-14T11:06:50.648Z,14.98
2024-03-14T11:09:19.017Z,16.10
2024-03-14T11:11:54.758Z,16.81
2024-03-14T11:14:23.046Z,17.22
2024-03-14T11:16:50.834Z,17.17
2024-03-14T11:19:18.914Z,17.09
2024-03-14T11:21:47.001Z,17.24
2024-03-14T11:24:14.972Z,17.47
2024-03-14T11:26:44.845Z,17.75
2024-03-14T11:32:57.759Z,18.13
2024-03-14T11:36:45.446Z,17.43
2024-03-14T11:39:17.577Z,16.56
2024-03-14T11:41:46.921Z,17.74
2024-03-14T11:44:16.689Z,18.25
2024-03-14T11:46:45.586Z,18.56
2024-03-14T11:49:17.284Z,18.53
2024-03-14T11:51:48.847Z,17.21
2024-03-14T11:54:19.248Z,18.22
2024-03-14T11:56:58.250Z,18.49
2024-03-14T11:59:26.045Z,18.75
2024-03-14T12:01:57.212Z,18.21
2024-03-14T12:04:26.568Z,17.15
2024-03-14T12:06:54.450Z,16.63
2024-03-14T12:09:24.638Z,17.28
2024-03-14T12:11:52.650Z,17.55
2024-03-14T12:14:20.684Z,17.31
2024-03-14T12:16:49.748Z,17.04
2024-03-14T12:19:17.835Z,18.11
2024-03-14T12:21:46.468Z,18.57
2024-03-14T12:24:14.878Z,18.31
2024-03-14T12:26:43.493Z,18.37
2024-03-14T12:29:11.456Z,18.87
2024-03-14T12:31:39.379Z,18.35
2024-03-14T12:34:07.884Z,18.74
2024-03-14T12:39:21.878Z,19.26
2024-03-14T12:41:51.473Z,19.05
2024-03-14T12:44:25.552Z,19.07
2024-03-14T12:46:54.231Z,19.10
2024-03-14T12:49:26.557Z,19.42
2024-03-14T12:51:58.386Z,19.64
2024-03-14T12:54:36.121Z,17.22
2024-03-14T12:57:07.335Z,17.18
2024-03-14T12:59:40.668Z,18.05
2024-03-14T13:02:11.964Z,18.67
2024-03-14T13:04:44.156Z,18.97
2024-03-14T13:07:20.273Z,18.74
2024-03-14T13:10:12.368Z,18.22
2024-03-14T13:12:42.001Z,18.62
2024-03-14T13:15:19.467Z,18.58
2024-03-14T13:17:49.472Z,18.63
2024-03-14T13:20:20.073Z,18.91
2024-03-14T13:22:51.104Z,18.24
2024-03-14T13:25:19.476Z,18.57
2024-03-14T13:27:48.030Z,18.67
2024-03-14T13:30:21.158Z,19.11
2024-03-14T13:32:57.808Z,19.20
2024-03-14T13:35:32.366Z,19.24
2024-03-14T13:38:00.980Z,19.44
2024-03-14T13:40:32.617Z,18.93
2024-03-14T13:43:16.908Z,18.61
2024-03-14T13:45:53.665Z,18.73
2024-03-14T13:48:22.215Z,19.25
2024-03-14T13:50:51.703Z,19.54
2024-03-14T13:53:32.207Z,19.85
2024-03-14T13:56:01.742Z,20.04
2024-03-14T13:58:39.871Z,19.90
2024-03-14T14:01:23.402Z,19.85
2024-03-14T14:04:01.002Z,18.85
2024-03-14T14:06:33.970Z,18.05
2024-03-14T14:09:07.984Z,18.54
2024-03-14T14:11:47.182Z,19.34
2024-03-14T14:14:20.041Z,19.55
2024-03-14T14:16:50.393Z,19.69
2024-03-14T14:19:22.470Z,18.09
2024-03-14T14:21:52.882Z,18.44
2024-03-14T14:24:25.132Z,19.20
2024-03-14T14:26:58.515Z,19.85
2024-03-14T14:29:27.215Z,20.34
2024-03-14T14:31:55.457Z,20.58
2024-03-14T14:34:23.928Z,20.76
2024-03-14T14:36:52.269Z,20.21
2024-03-14T14:39:20.592Z,20.46
2024-03-14T14:41:48.367Z,19.69
2024-03-14T14:44:16.689Z,20.09
2024-03-14T14:46:45.068Z,20.43
2024-03-14T14:49:14.804Z,20.27
2024-03-14T14:51:43.663Z,20.03
2024-03-14T14:54:11.514Z,18.66
2024-03-14T14:56:45.038Z,17.19
2024-03-14T14:59:13.235Z,17.99
2024-03-14T15:01:41.073Z,18.73
2024-03-14T15:04:08.920Z,18.65
2024-03-14T15:06:39.139Z,17.55
2024-03-14T15:09:10.257Z,17.84
2024-03-14T15:11:38.731Z,18.31
2024-03-14T15:14:06.719Z,18.70
2024-03-14T15:16:36.803Z,18.75
2024-03-14T15:19:08.788Z,19.25
2024-03-14T15:21:46.689Z,19.46
2024-03-14T15:24:21.740Z,19.70
2024-03-14T15:26:56.598Z,19.72
2024-03-14T15:29:25.302Z,19.67
2024-03-14T15:31:58.174Z,19.44
2024-03-14T15:34:30.053Z,19.46
2024-03-14T15:36:58.472Z,19.49
2024-03-14T15:39:33.119Z,19.44
2024-03-14T15:42:30.545Z,19.64
2024-03-14T15:45:09.459Z,18.69
2024-03-14T15:47:41.264Z,18.59
2024-03-14T15:50:17.887Z,19.02
2024-03-14T15:52:52.409Z,18.40
2024-03-14T15:55:29.929Z,18.10
2024-03-14T15:58:12.581Z,18.19
2024-03-14T16:00:53.493Z,18.73
2024-03-14T16:03:27.487Z,18.81
2024-03-14T16:06:00.522Z,18.91
2024-03-14T16:08:55.025Z,19.07
2024-03-14T16:11:32.360Z,18.89
2024-03-14T16:14:05.004Z,18.76
2024-03-14T16:16:42.092Z,18.73
2024-03-14T16:19:27.611Z,18.61
2024-03-14T16:22:16.280Z,18.60
2024-03-14T16:25:00.742Z,18.70
2024-03-14T16:27:36.471Z,18.54
2024-03-14T16:30:05.656Z,18.52
2024-03-14T16:32:38.230Z,18.08
2024-03-14T16:35:17.346Z,17.41
2024-03-14T16:37:45.903Z,18.06
2024-03-14T16:40:13.898Z,18.02
2024-03-14T16:42:41.775Z,18.10
2024-03-14T16:45:09.802Z,18.27
2024-03-14T16:47:37.687Z,18.35
2024-03-14T16:50:05.940Z,18.30
2024-03-14T16:52:34.685Z,18.42
2024-03-14T16:55:02.506Z,18.51
2024-03-14T16:57:30.365Z,18.39
2024-03-14T16:59:58.370Z,18.40
2024-03-14T17:02:26.866Z,18.20
2024-03-14T17:04:55.590Z,18.27
2024-03-14T17:07:25.621Z,18.15
2024-03-14T17:09:53.447Z,18.12
2024-03-14T17:12:21.333Z,18.05
2024-03-14T17:14:50.905Z,17.82
2024-03-14T17:17:21.836Z,17.89
2024-03-14T17:19:50.790Z,17.91
2024-03-14T17:22:18.841Z,17.98
2024-03-14T17:24:47.375Z,17.94
2024-03-14T17:27:15.343Z,17.84
2024-03-14T17:29:43.597Z,17.66
2024-03-14T17:32:11.429Z,17.69
2024-03-14T17:34:40.020Z,17.55
2024-03-14T17:37:07.910Z,17.41
2024-03-14T17:39:35.834Z,17.38
2024-03-14T17:42:03.770Z,17.38
2024-03-14T17:44:32.061Z,17.32
2024-03-14T17:47:00.137Z,17.28
2024-03-14T17:49:30.973Z,17.19
2024-03-14T17:51:59.257Z,17.15
2024-03-14T17:54:27.238Z,17.20
2024-03-14T17:57:09.701Z,16.96
2024-03-14T17:59:38.528Z,16.90
2024-03-14T18:02:13.910Z,16.94
2024-03-14T18:04:50.149Z,16.93
2024-03-14T18:07:18.029Z,16.91
2024-03-14T18:09:46.072Z,16.84
2024-03-14T18:12:14.144Z,16.78
2024-03-14T18:14:42.170Z,16.74
2024-03-14T18:17:24.028Z,16.37
2024-03-14T18:19:55.207Z,16.10
2024-03-14T18:22:30.361Z,16.00
2024-03-14T18:25:03.977Z,16.24
2024-03-14T19:20:46.915Z,15.48
2024-03-14T19:23:51.676Z,15.56
2024-03-14T19:26:43.130Z,15.58
2024-03-14T19:36:10.584Z,15.55
2024-03-14T19:38:42.617Z,15.57
2024-03-14T19:41:11.852Z,15.61
2024-03-14T19:43:40.578Z,15.31
2024-03-14T19:46:09.170Z,15.19
2024-03-14T19:48:43.855Z,15.08
2024-03-14T19:51:13.053Z,15.22
2024-03-14T19:53:40.994Z,15.19
2024-03-14T19:56:11.350Z,15.22
2024-03-14T19:58:41.389Z,15.15
2024-03-14T20:01:09.406Z,14.96
2024-03-14T20:03:38.032Z,14.97
2024-03-14T20:06:06.835Z,14.69
2024-03-14T20:08:39.064Z,14.92
2024-03-14T20:11:09.190Z,14.87
2024-03-14T20:13:39.009Z,14.92
2024-03-14T20:16:07.122Z,14.84
2024-03-14T20:18:35.167Z,14.88
2024-03-14T20:21:06.164Z,14.62
2024-03-14T20:23:40.362Z,14.36
2024-03-14T20:26:10.270Z,14.52
2024-03-14T20:28:38.482Z,14.41
2024-03-14T20:31:06.568Z,14.08
2024-03-14T20:33:34.822Z,13.68
2024-03-14T20:36:07.918Z,13.55
2024-03-14T20:38:36.070Z,13.43
2024-03-14T20:41:06.984Z,12.91
2024-03-14T20:43:42.108Z,12.82
2024-03-14T20:46:11.785Z,13.14
2024-03-14T20:48:39.825Z,12.94
2024-03-14T20:51:07.735Z,13.16
2024-03-14T20:53:35.894Z,13.24
2024-03-14T20:56:08.398Z,12.97
2024-03-14T20:58:41.661Z,12.77
2024-03-14T21:01:14.137Z,12.69
2024-03-14T21:03:48.798Z,12.57
2024-03-14T21:06:27.357Z,12.61
2024-03-14T21:08:57.216Z,12.93
2024-03-14T21:11:25.722Z,13.02
2024-03-14T21:13:53.643Z,12.57
2024-03-14T21:16:23.306Z,12.49
2024-03-14T21:18:51.820Z,12.79
2024-03-14T21:21:21.864Z,13.00
2024-03-14T21:23:49.907Z,13.26
2024-03-14T21:26:17.888Z,13.40
2024-03-14T21:28:45.693Z,13.59
2024-03-14T21:31:14.730Z,13.51
2024-03-14T21:33:42.841Z,13.63
2024-03-14T21:36:11.740Z,13.78
2024-03-14T21:38:39.634Z,13.65
2024-03-14T21:41:07.616Z,13.83
2024-03-14T21:43:36.650Z,13.93
2024-03-14T21:46:06.452Z,14.03
2024-03-14T21:48:34.482Z,13.99
2024-03-14T21:51:03.621Z,13.97
2024-03-14T21:53:31.895Z,13.96
2024-03-14T21:56:00.057Z,13.75
2024-03-14T21:58:32.025Z,13.95
2024-03-14T22:01:07.126Z,13.85
2024-03-14T22:03:37.273Z,13.90
2024-03-14T22:06:09.115Z,13.75
2024-03-14T22:08:37.337Z,13.94
2024-03-14T22:11:05.433Z,13.91
2024-03-14T22:13:33.396Z,13.84
2024-03-14T22:16:01.348Z,13.68
2024-03-14T22:18:32.396Z,13.60
2024-03-14T22:21:00.228Z,13.60
2024-03-14T22:23:28.044Z,13.69
2024-03-14T22:25:58.414Z,13.30
2024-03-14T22:28:26.192Z,13.35
2024-03-14T22:31:00.055Z,13.55
2024-03-14T22:33:35.609Z,13.63
2024-03-14T22:36:04.649Z,13.80
2024-03-14T22:38:32.740Z,13.69
2024-03-14T22:41:07.408Z,13.82
2024-03-14T22:43:38.696Z,13.87
2024-03-14T22:46:06.520Z,13.92
2024-03-14T22:48:34.538Z,13.94
2024-03-14T22:51:02.567Z,13.98
2024-03-14T22:53:32.182Z,13.78
2024-03-14T22:56:00.442Z,13.92
2024-03-14T22:58:29.014Z,13.90
2024-03-14T23:00:58.510Z,13.87
2024-03-14T23:03:29.138Z,13.86
2024-03-14T23:05:57.142Z,13.82
2024-03-14T23:08:26.611Z,13.42
2024-03-14T23:10:54.779Z,12.86
2024-03-14T23:13:25.811Z,13.09
2024-03-14T23:15:54.054Z,13.24
2024-03-14T23:18:22.091Z,13.42
2024-03-14T23:20:52.820Z,13.56
2024-03-14T23:23:21.167Z,13.63
2024-03-14T23:25:49.359Z,13.76
2024-03-14T23:28:18.481Z,13.49
2024-03-14T23:30:50.097Z,13.49
2024-03-14T23:33:18.609Z,13.62
2024-03-14T23:35:47.666Z,13.60
2024-03-14T23:38:15.556Z,13.60
2024-03-14T23:40:43.347Z,13.47
2024-03-14T23:43:14.735Z,13.41
2024-03-14T23:45:42.928Z,13.51
2024-03-14T23:48:13.218Z,13.43
2024-03-14T23:50:41.143Z,13.56
2024-03-14T23:53:08.973Z,13.49
2024-03-14T23:55:38.150Z,13.50
2024-03-14T23:58:07.346Z,13.52
